Time;durP1;ratioP1;P1;durP2;ratioP2;P2;SDS_P1;SDS_P2;PMS_P1;PMS_P2;Temp;Humidity;BMP_temperature;BMP_pressure;BME280_temperature;BME280_humidity;BME280_pressure;Samples;Min_cycle;Max_cycle;Signal;HPM_P1;HPM_P2
2023/08/21 00:01:19;;;;;;;8.77;7.72;;;;;;;-145.63;51.33;38991.00;5024382;28;20092;-68
2023/08/21 00:03:44;;;;;;;8.35;7.65;;;;;;;-145.63;51.16;39022.28;5025369;28;20029;-68
2023/08/21 00:06:11;;;;;;;8.70;7.90;;;;;;;-145.63;51.58;39032.06;5025022;28;20030;-69
2023/08/21 00:08:36;;;;;;;7.88;7.18;;;;;;;-145.63;51.83;39004.69;5025082;28;20022;-68
2023/08/21 00:11:02;;;;;;;8.25;7.55;;;;;;;-145.63;51.28;38977.31;5024052;28;20026;-67
2023/08/21 00:13:27;;;;;;;8.27;7.47;;;;;;;-145.63;52.05;38971.44;5025086;28;20038;-67
2023/08/21 00:15:55;;;;;;;8.80;7.90;;;;;;;-145.63;52.15;38973.41;5025010;28;20060;-68
2023/08/21 00:18:21;;;;;;;8.82;7.95;;;;;;;-145.63;51.37;39014.47;5038335;28;20025;-68
2023/08/21 00:20:46;;;;;;;9.02;8.18;;;;;;;-145.63;51.60;38992.97;5024798;28;20093;-68
2023/08/21 00:23:12;;;;;;;9.05;8.18;;;;;;;-145.63;51.81;39016.44;5024541;28;20203;-67
2023/08/21 00:25:38;;;;;;;11.40;8.35;;;;;;;-145.63;51.87;38994.91;5024885;28;20037;-69
2023/08/21 00:28:04;;;;;;;7.82;7.05;;;;;;;-145.63;51.62;39016.44;5024699;28;20071;-68
2023/08/21 00:30:29;;;;;;;8.18;7.20;;;;;;;-145.63;52.02;39024.25;5024907;28;20033;-69
2023/08/21 00:32:55;;;;;;;9.35;7.80;;;;;;;-145.63;51.70;39004.69;5024609;28;20046;-68
2023/08/21 00:35:20;;;;;;;8.30;7.50;;;;;;;-145.63;51.39;39012.50;5024442;28;20034;-68
2023/08/21 00:37:46;;;;;;;8.63;7.72;;;;;;;-145.63;51.85;39032.06;5024649;28;20179;-69
2023/08/21 00:40:13;;;;;;;9.68;8.30;;;;;;;-145.63;52.09;38967.53;5024487;28;20034;-69
2023/08/21 00:42:39;;;;;;;8.10;7.22;;;;;;;-145.63;51.85;39018.38;5024223;28;20022;-69
2023/08/21 00:45:08;;;;;;;8.23;7.20;;;;;;;-145.63;51.89;39012.50;5024538;28;20025;-69
2023/08/21 00:47:34;;;;;;;8.25;7.47;;;;;;;-145.63;52.26;39024.25;5028259;28;20025;-69
2023/08/21 00:50:00;;;;;;;11.10;7.95;;;;;;;-145.63;51.95;38996.88;5036463;28;20029;-68
2023/08/21 00:52:26;;;;;;;8.48;7.65;;;;;;;-145.63;51.45;39008.59;5024820;28;20202;-70
2023/08/21 00:54:52;;;;;;;8.45;7.65;;;;;;;-145.63;52.17;39030.13;5023996;28;20255;-67
2023/08/21 00:57:18;;;;;;;8.27;7.50;;;;;;;-145.63;52.61;38998.81;5024098;28;20104;-69
2023/08/21 00:59:44;;;;;;;8.02;7.22;;;;;;;-145.63;52.27;39041.84;5024226;28;20360;-68
2023/08/21 01:02:10;;;;;;;9.55;7.40;;;;;;;-145.63;52.16;39067.28;5024370;28;20101;-68
2023/08/21 01:04:36;;;;;;;8.45;7.57;;;;;;;-145.63;52.51;39016.44;5024078;28;20022;-67
2023/08/21 01:07:04;;;;;;;11.70;8.05;;;;;;;-145.63;52.75;39057.50;5023645;28;20068;-68
2023/08/21 01:09:38;;;;;;;8.13;7.32;;;;;;;-145.63;52.47;39043.81;5023832;28;20030;-68
2023/08/21 01:12:17;;;;;;;8.63;7.45;;;;;;;-145.63;53.11;39047.72;5023574;28;20052;-68
2023/08/21 01:15:00;;;;;;;8.43;7.30;;;;;;;-145.63;52.83;39037.94;5023917;28;20237;-68
2023/08/21 01:17:29;;;;;;;9.00;7.80;;;;;;;-145.63;52.42;39057.50;5023873;28;20021;-68
2023/08/21 01:19:56;;;;;;;9.75;6.88;;;;;;;-145.63;52.31;39020.34;5024074;28;20083;-68
2023/08/21 01:22:36;;;;;;;9.73;7.85;;;;;;;-145.63;52.65;39067.28;5023913;28;20065;-70
2023/08/21 01:25:02;;;;;;;8.70;7.85;;;;;;;-145.63;52.84;39082.91;5022696;28;20030;-69
2023/08/21 01:27:29;;;;;;;9.48;8.02;;;;;;;-145.63;52.76;39112.25;5023988;28;20302;-69
2023/08/21 01:29:55;;;;;;;8.80;7.95;;;;;;;-145.63;53.22;39067.28;5023742;28;20026;-69
2023/08/21 01:32:29;;;;;;;9.60;7.95;;;;;;;-145.63;53.12;39092.69;5023756;28;20045;-68
2023/08/21 01:34:55;;;;;;;8.77;7.65;;;;;;;-145.63;53.15;39079.00;5028492;28;20048;-69
2023/08/21 01:37:23;;;;;;;10.80;8.70;;;;;;;-145.63;53.50;39090.75;5028714;28;20029;-70
2023/08/21 01:39:49;;;;;;;9.88;7.78;;;;;;;-145.63;53.55;39106.38;5029448;28;20030;-68
2023/08/21 01:42:15;;;;;;;25.08;18.25;;;;;;;-145.63;54.06;39090.75;5024512;28;20041;-69
2023/08/21 01:44:40;;;;;;;9.93;8.80;;;;;;;-145.63;53.56;39088.78;5038859;28;20040;-69
2023/08/21 01:47:06;;;;;;;10.18;7.57;;;;;;;-145.63;53.32;39075.09;5026263;28;20186;-69
2023/08/21 01:49:32;;;;;;;8.50;7.65;;;;;;;-145.63;53.07;39086.81;5041603;28;20056;-68
2023/08/21 01:51:57;;;;;;;10.13;7.63;;;;;;;-145.63;53.25;39071.19;5031465;28;20055;-69
2023/08/21 01:54:23;;;;;;;9.73;7.22;;;;;;;-145.63;53.65;39125.94;5033112;28;20025;-69
2023/08/21 01:56:48;;;;;;;11.00;8.00;;;;;;;-145.63;53.63;39125.94;5023408;28;20026;-69
2023/08/21 01:59:16;;;;;;;8.50;7.60;;;;;;;-145.63;54.00;39108.34;5026184;28;20026;-68
2023/08/21 02:01:42;;;;;;;8.68;7.35;;;;;;;-145.63;53.54;39112.25;5038509;28;20026;-68
2023/08/21 02:04:07;;;;;;;8.60;7.70;;;;;;;-145.63;53.30;39106.38;5031096;28;20033;-68
2023/08/21 02:06:33;;;;;;;8.80;7.70;;;;;;;-145.63;53.18;39106.38;5027478;28;20021;-68
2023/08/21 02:08:59;;;;;;;10.07;7.45;;;;;;;-145.63;53.13;39094.66;5027235;28;20195;-67
2023/08/21 02:11:24;;;;;;;10.25;7.50;;;;;;;-145.63;53.27;39088.78;5027176;28;20029;-68
2023/08/21 02:13:50;;;;;;;8.07;7.28;;;;;;;-145.63;53.36;39077.06;5027249;28;20191;-67
2023/08/21 02:16:16;;;;;;;8.38;7.45;;;;;;;-145.63;53.88;39102.47;5027233;28;20036;-68
2023/08/21 02:18:41;;;;;;;8.07;7.00;;;;;;;-145.63;53.53;39094.66;5026908;28;20026;-69
2023/08/21 02:21:07;;;;;;;9.65;8.15;;;;;;;-145.63;53.46;39086.81;5027062;28;20332;-69
2023/08/21 02:23:32;;;;;;;8.13;7.20;;;;;;;-145.63;53.59;39075.09;5025628;28;20391;-69
2023/08/21 02:25:58;;;;;;;7.78;6.75;;;;;;;-145.63;53.25;39075.09;5027088;28;20033;-68
2023/08/21 02:28:24;;;;;;;7.72;6.95;;;;;;;-145.63;53.02;39079.00;5026960;28;20030;-68
2023/08/21 02:30:49;;;;;;;9.20;7.28;;;;;;;-145.63;53.39;39102.47;5026567;28;20057;-68
2023/08/21 02:33:15;;;;;;;7.80;6.97;;;;;;;-145.63;53.67;39053.59;5027273;28;20037;-69
2023/08/21 02:35:41;;;;;;;7.95;7.10;;;;;;;-145.63;53.67;39102.47;5030374;28;20085;-70
2023/08/21 02:38:07;;;;;;;8.05;7.25;;;;;;;-145.63;53.57;39098.56;5031347;28;20029;-69
2023/08/21 02:40:32;;;;;;;9.82;7.22;;;;;;;-145.63;53.50;39098.56;5025659;28;20029;-69
2023/08/21 02:42:58;;;;;;;8.55;7.25;;;;;;;-145.63;53.81;39127.91;5026731;28;20026;-69
2023/08/21 02:45:24;;;;;;;8.10;7.35;;;;;;;-145.63;54.07;39090.75;5026656;28;20132;-69
2023/08/21 02:47:49;;;;;;;9.48;6.90;;;;;;;-145.63;53.59;39122.03;5037872;28;20060;-68
2023/08/21 02:50:15;;;;;;;9.45;7.45;;;;;;;-145.63;53.50;39065.31;5041530;28;20033;-69
2023/08/21 02:52:41;;;;;;;8.50;6.40;;;;;;;-145.63;53.68;39067.28;5038212;28;20033;-69
2023/08/21 02:55:07;;;;;;;7.32;6.32;;;;;;;-145.63;53.00;39127.91;5038757;28;20043;-69
2023/08/21 02:57:32;;;;;;;8.05;6.35;;;;;;;-145.63;53.46;39094.66;5026470;28;20025;-69
2023/08/21 02:59:58;;;;;;;7.90;7.10;;;;;;;-145.63;53.46;39098.56;5026456;28;20367;-69
2023/08/21 03:02:24;;;;;;;8.88;6.43;;;;;;;-145.63;53.69;39084.88;5026527;28;20034;-69
2023/08/21 03:04:50;;;;;;;13.63;7.30;;;;;;;-145.63;53.74;39114.22;5026234;28;20060;-68
2023/08/21 03:07:16;;;;;;;7.22;6.38;;;;;;;-145.63;53.61;39125.94;5033697;28;20049;-69
2023/08/21 03:09:42;;;;;;;12.48;6.13;;;;;;;-145.63;53.72;39106.38;5028084;28;20029;-68
2023/08/21 03:12:08;;;;;;;8.15;5.85;;;;;;;-145.63;53.69;39114.22;5025290;28;20100;-68
2023/08/21 03:14:34;;;;;;;9.52;5.90;;;;;;;-145.63;53.29;39102.47;5027501;28;20038;-68
2023/08/21 03:17:00;;;;;;;6.60;5.85;;;;;;;-145.63;53.43;39118.13;5033402;28;20095;-68
2023/08/21 03:19:26;;;;;;;10.32;5.68;;;;;;;-145.63;53.36;39114.22;5026002;28;20104;-68
2023/08/21 03:21:51;;;;;;;10.88;5.22;;;;;;;-145.63;53.25;39086.81;5025952;28;20053;-68
2023/08/21 03:24:18;;;;;;;7.65;5.20;;;;;;;-145.63;52.69;39079.00;5025861;28;20056;-68
2023/08/21 03:26:44;;;;;;;5.63;5.13;;;;;;;-145.63;52.84;39061.41;5026108;28;20026;-68
2023/08/21 03:29:09;;;;;;;7.80;5.38;;;;;;;-145.63;52.96;39139.63;5025141;28;20092;-69
2023/08/21 03:31:35;;;;;;;6.65;5.25;;;;;;;-145.63;53.07;39032.06;5025773;28;20241;-69
2023/08/21 03:34:02;;;;;;;7.65;5.45;;;;;;;-145.63;52.86;38947.97;5022669;28;20109;-70
2023/08/21 03:36:31;;;;;;;12.63;5.38;;;;;;;-145.63;53.17;39084.88;5031867;28;20033;-70
2023/08/21 03:38:58;;;;;;;6.53;5.30;;;;;;;-145.63;53.32;39043.81;5024121;28;20083;-69
2023/08/21 03:41:24;;;;;;;6.90;4.72;;;;;;;-145.63;52.73;39055.53;5025540;28;20191;-69
2023/08/21 03:43:49;;;;;;;7.18;4.80;;;;;;;-145.63;52.74;39096.59;5025534;28;20029;-70
2023/08/21 03:46:15;;;;;;;6.55;4.90;;;;;;;-145.63;52.41;39071.19;5024248;28;20030;-68
2023/08/21 03:48:41;;;;;;;7.18;5.03;;;;;;;-145.63;52.51;39039.88;5035278;28;20034;-69
2023/08/21 03:51:06;;;;;;;5.90;4.88;;;;;;;-145.63;52.61;39090.75;5038367;28;20037;-69
2023/08/21 03:53:32;;;;;;;8.57;4.90;;;;;;;-145.63;51.98;39063.34;5025431;28;20034;-69
2023/08/21 03:55:58;;;;;;;6.22;4.50;;;;;;;-145.63;52.34;39094.66;5025530;28;20295;-70
2023/08/21 03:58:25;;;;;;;5.45;3.90;;;;;;;-145.63;51.81;39118.13;5025205;28;20053;-69
2023/08/21 04:00:51;;;;;;;7.63;4.60;;;;;;;-145.63;51.79;39077.06;5027213;28;20029;-69
2023/08/21 04:03:16;;;;;;;6.85;4.47;;;;;;;-145.63;52.17;39077.06;5029426;28;20302;-69
2023/08/21 04:05:42;;;;;;;5.10;3.70;;;;;;;-145.63;51.50;39075.09;5025079;28;20030;-69
2023/08/21 04:08:08;;;;;;;8.38;3.90;;;;;;;-145.63;51.63;38871.72;5025125;28;20040;-68
2023/08/21 04:10:33;;;;;;;7.40;4.30;;;;;;;-145.63;51.93;39051.63;5025174;28;20036;-69
2023/08/21 04:12:59;;;;;;;3.95;3.30;;;;;;;-145.63;51.08;39063.34;5025261;28;20033;-69
2023/08/21 04:15:25;;;;;;;4.38;3.40;;;;;;;-145.63;50.59;39071.19;5025079;28;20022;-69
2023/08/21 04:17:51;;;;;;;3.75;3.30;;;;;;;-145.63;50.80;39059.44;5024845;28;20061;-69
2023/08/21 04:20:20;;;;;;;4.35;3.08;;;;;;;-145.63;51.14;39043.81;5024435;28;20056;-68
2023/08/21 04:22:46;;;;;;;4.85;3.10;;;;;;;-145.63;50.49;39035.97;5005063;28;20066;-69
2023/08/21 04:25:11;;;;;;;3.75;2.60;;;;;;;-145.63;49.69;39037.94;5020451;28;20341;-68
2023/08/21 04:27:37;;;;;;;5.18;2.88;;;;;;;-145.63;49.92;39049.66;5024708;28;20053;-69
2023/08/21 04:30:04;;;;;;;5.75;2.70;;;;;;;-145.63;49.87;39020.34;5024698;28;20050;-68
2023/08/21 04:32:31;;;;;;;4.68;2.58;;;;;;;-145.63;50.45;39020.34;5030624;28;20234;-68
2023/08/21 04:34:57;;;;;;;6.25;3.15;;;;;;;-145.63;50.13;39022.28;5024946;28;20056;-69
2023/08/21 04:37:23;;;;;;;3.45;2.72;;;;;;;-145.63;49.98;39061.41;5024559;28;20026;-69
2023/08/21 04:39:52;;;;;;;5.32;2.95;;;;;;;-145.63;50.34;39028.16;5024337;28;20053;-69
2023/08/21 04:42:18;;;;;;;5.45;2.80;;;;;;;-145.63;50.13;39047.72;5025804;28;20085;-68
2023/08/21 04:44:44;;;;;;;2.58;2.38;;;;;;;-145.63;50.39;39024.25;5025290;28;20029;-70
2023/08/21 04:47:23;;;;;;;2.95;2.45;;;;;;;-145.63;50.03;38244.03;5031710;28;20049;-69
2023/08/21 04:49:50;;;;;;;4.18;2.80;;;;;;;-145.63;49.91;39028.16;5025768;28;20053;-69
2023/08/21 04:52:16;;;;;;;3.40;2.50;;;;;;;-145.63;48.98;39016.44;5041964;28;20056;-68
2023/08/21 04:54:42;;;;;;;5.63;3.05;;;;;;;-145.63;50.13;39000.78;5032752;28;20053;-70
2023/08/21 04:57:08;;;;;;;3.75;2.45;;;;;;;-145.63;49.86;39053.59;5023978;28;20305;-68
2023/08/21 04:59:35;;;;;;;5.65;2.45;;;;;;;-145.63;49.57;39002.72;5024072;28;20038;-69
2023/08/21 05:02:00;;;;;;;3.47;2.15;;;;;;;-145.63;49.52;38965.56;5043832;28;20096;-69
2023/08/21 05:04:26;;;;;;;3.83;2.80;;;;;;;-145.63;48.87;39026.19;5034275;28;20076;-70
2023/08/21 05:06:52;;;;;;;8.00;2.78;;;;;;;-145.63;48.34;38996.88;5024594;28;20085;-69
2023/08/21 05:09:18;;;;;;;3.88;2.28;;;;;;;-145.63;48.10;38996.88;5023640;28;20030;-68
2023/08/21 05:11:44;;;;;;;2.55;2.35;;;;;;;-145.63;48.13;38887.34;5023605;28;20065;-68
2023/08/21 05:14:10;;;;;;;4.13;2.40;;;;;;;-145.63;47.11;38844.34;5023972;28;20044;-69
2023/08/21 05:16:36;;;;;;;3.60;2.45;;;;;;;-145.63;46.44;38863.88;5022637;28;20048;-69
2023/08/21 05:19:01;;;;;;;3.70;2.60;;;;;;;-145.63;47.75;38867.81;5027183;28;20371;-68
2023/08/21 05:21:28;;;;;;;5.70;2.63;;;;;;;-145.63;47.11;38881.50;5029778;28;20033;-68
2023/08/21 05:23:53;;;;;;;2.30;2.10;;;;;;;-145.63;47.15;38908.88;5032071;28;20048;-68
2023/08/21 05:26:19;;;;;;;4.82;2.50;;;;;;;-145.63;47.00;38899.09;5023711;28;20097;-70
2023/08/21 05:28:45;;;;;;;3.97;2.63;;;;;;;-145.63;47.40;38885.41;5023671;28;20076;-68
2023/08/21 05:31:11;;;;;;;2.53;2.33;;;;;;;-145.63;47.35;38861.94;5023578;28;20021;-69
2023/08/21 05:33:37;;;;;;;6.30;2.42;;;;;;;-145.63;46.84;38899.09;5023602;28;20206;-69
2023/08/21 05:36:03;;;;;;;6.18;2.40;;;;;;;-145.63;46.87;38904.97;5023690;28;20333;-68
2023/08/21 05:38:28;;;;;;;4.18;2.20;;;;;;;-145.63;46.76;38854.13;5023740;28;20045;-68
2023/08/21 05:40:54;;;;;;;5.40;2.47;;;;;;;-145.63;47.20;38883.44;5006001;28;20217;-69
2023/08/21 05:43:20;;;;;;;3.55;2.05;;;;;;;-145.63;47.59;38865.84;5023436;28;20034;-69
2023/08/21 05:45:45;;;;;;;2.53;2.30;;;;;;;-145.63;46.63;38811.09;5023279;28;20029;-70
2023/08/21 05:48:11;;;;;;;2.67;2.28;;;;;;;-145.63;46.70;38844.34;5029697;28;20071;-69
2023/08/21 05:50:37;;;;;;;2.22;2.03;;;;;;;-145.63;46.31;38466.94;5020819;28;20030;-68
2023/08/21 05:53:06;;;;;;;2.42;2.17;;;;;;;-145.63;46.71;38824.78;5034003;28;20040;-68
2023/08/21 05:55:32;;;;;;;6.25;2.10;;;;;;;-145.63;45.75;38809.13;5034362;28;20261;-69
2023/08/21 05:57:58;;;;;;;2.35;2.08;;;;;;;-145.63;46.46;38822.81;5036863;28;20017;-71
2023/08/21 06:00:24;;;;;;;4.45;2.50;;;;;;;-145.63;45.07;38801.31;5012737;28;20049;-70
2023/08/21 06:02:50;;;;;;;3.05;2.15;;;;;;;-145.63;45.10;38793.50;5021832;28;20030;-68
2023/08/21 06:05:16;;;;;;;2.55;2.17;;;;;;;-145.63;44.47;38738.75;5028414;28;20033;-70
2023/08/21 06:07:42;;;;;;;4.57;2.35;;;;;;;-145.63;44.27;38842.38;5023141;28;20088;-70
2023/08/21 06:10:12;;;;;;;3.70;2.40;;;;;;;-145.63;44.83;38883.44;5028878;28;20026;-70
2023/08/21 06:12:40;;;;;;;3.97;2.80;;;;;;;-145.63;46.21;38773.94;5029159;28;20654;-68
2023/08/21 06:15:10;;;;;;;2.22;2.03;;;;;;;-145.63;44.14;38773.94;5019353;28;20253;-69
2023/08/21 06:17:36;;;;;;;2.65;2.20;;;;;;;-145.63;43.93;38762.22;5030663;28;20049;-68
2023/08/21 06:20:05;;;;;;;2.95;2.10;;;;;;;-145.63;43.58;38789.59;5023277;28;20022;-69
2023/08/21 06:22:32;;;;;;;3.97;2.25;;;;;;;-145.63;43.11;38687.91;5023972;28;20083;-70
2023/08/21 06:24:58;;;;;;;2.20;1.95;;;;;;;-145.63;41.56;38805.22;5037177;28;20045;-68
2023/08/21 06:27:23;;;;;;;4.18;2.13;;;;;;;-145.63;42.15;38740.69;5035039;28;20033;-69
2023/08/21 06:29:49;;;;;;;5.40;2.13;;;;;;;-145.63;41.80;38760.25;5022904;28;20026;-69
2023/08/21 06:32:15;;;;;;;4.97;2.00;;;;;;;-145.63;41.18;38738.75;5027908;28;20084;-69
2023/08/21 06:34:40;;;;;;;3.20;2.00;;;;;;;-145.63;41.18;38760.25;5022664;28;20137;-69
2023/08/21 06:37:06;;;;;;;7.70;2.45;;;;;;;-145.63;41.72;38797.41;5018273;28;20041;-69
2023/08/21 06:39:32;;;;;;;4.22;2.20;;;;;;;-145.63;41.53;38734.81;5020753;28;20057;-69
2023/08/21 06:41:57;;;;;;;3.72;1.95;;;;;;;-145.63;41.40;38756.34;5023256;28;20041;-68
2023/08/21 06:44:23;;;;;;;1.95;1.67;;;;;;;-145.63;41.48;38791.53;5024498;28;20038;-68
2023/08/21 06:46:49;;;;;;;4.10;2.97;;;;;;;-145.63;42.94;38795.44;5024785;28;20030;-67
2023/08/21 06:49:14;;;;;;;4.63;2.78;;;;;;;-145.63;43.24;38768.06;5026315;28;20022;-69
2023/08/21 06:51:40;;;;;;;9.52;3.28;;;;;;;-145.63;43.35;38781.75;5022212;28;20376;-69
2023/08/21 06:54:06;;;;;;;4.30;2.50;;;;;;;-145.63;42.93;38822.81;5020472;28;20385;-69
2023/08/21 06:56:32;;;;;;;2.25;2.05;;;;;;;-145.63;41.02;38852.16;5024131;28;20033;-71
2023/08/21 06:58:58;;;;;;;3.55;2.00;;;;;;;-145.63;41.80;38852.16;5031321;28;20056;-69
2023/08/21 07:01:23;;;;;;;2.55;1.92;;;;;;;-145.63;42.03;38871.72;5029894;28;20053;-69
2023/08/21 07:03:49;;;;;;;3.25;2.05;;;;;;;-145.63;41.88;38781.75;5029575;28;20341;-68
2023/08/21 07:06:14;;;;;;;2.38;1.95;;;;;;;-145.63;40.55;38750.47;5026923;28;20022;-68
2023/08/21 07:08:40;;;;;;;3.70;2.05;;;;;;;-145.63;39.98;38727.00;5024995;28;20029;-70
2023/08/21 07:11:10;;;;;;;3.33;2.03;;;;;;;-145.63;39.99;38725.06;5029952;28;20065;-70
2023/08/21 07:13:36;;;;;;;2.90;2.03;;;;;;;-145.63;39.46;38742.66;5024216;28;20069;-69
2023/08/21 07:16:03;;;;;;;2.65;1.63;;;;;;;-145.63;39.94;38742.66;5030941;28;20030;-69
2023/08/21 07:18:32;;;;;;;2.55;2.00;;;;;;;-145.63;38.28;38664.44;5028457;28;20036;-68
2023/08/21 07:20:57;;;;;;;3.30;1.92;;;;;;;-145.63;39.17;38674.22;5028025;28;20043;-68
2023/08/21 07:23:23;;;;;;;2.72;2.10;;;;;;;-145.63;38.88;38744.59;5028088;28;20977;-69
2023/08/21 07:25:49;;;;;;;2.65;1.90;;;;;;;-145.63;38.71;38744.59;5015921;28;20100;-69
2023/08/21 07:28:14;;;;;;;2.10;2.00;;;;;;;-145.63;38.45;38752.44;5017097;28;20482;-68
2023/08/21 07:30:40;;;;;;;3.58;2.05;;;;;;;-145.63;38.89;38674.22;5014454;28;20026;-69
2023/08/21 07:33:06;;;;;;;6.78;2.70;;;;;;;-145.63;38.21;38660.53;5017121;28;20057;-69
2023/08/21 07:35:32;;;;;;;5.30;2.25;;;;;;;-145.63;38.63;38656.59;5014808;28;20061;-69
2023/08/21 07:37:58;;;;;;;4.65;2.40;;;;;;;-145.63;37.46;38715.28;5015878;28;20041;-70
2023/08/21 07:40:24;;;;;;;3.10;1.90;;;;;;;-145.63;37.57;38713.31;5018352;28;20038;-69
2023/08/21 07:42:50;;;;;;;2.75;2.05;;;;;;;-145.63;38.46;38658.56;5017605;28;20071;-69
2023/08/21 07:45:16;;;;;;;4.45;1.95;;;;;;;-145.63;37.21;38660.53;5023611;28;20029;-68
2023/08/21 07:47:42;;;;;;;3.00;1.85;;;;;;;-145.63;37.23;38678.13;5025491;28;20089;-70
2023/08/21 07:50:16;;;;;;;2.10;1.90;;;;;;;-145.63;36.66;38603.81;5025418;28;20061;-71
2023/08/21 07:52:42;;;;;;;3.10;1.75;;;;;;;-145.63;36.41;38631.19;5005704;28;20049;-70
2023/08/21 07:55:08;;;;;;;3.42;1.73;;;;;;;-145.63;37.43;38584.25;5036757;28;20065;-70
2023/08/21 07:57:34;;;;;;;4.40;1.73;;;;;;;-145.63;35.79;38605.78;5029437;28;20314;-70
2023/08/21 07:59:59;;;;;;;4.57;1.80;;;;;;;-145.63;35.97;38601.84;5024613;28;20029;-70
2023/08/21 08:02:25;;;;;;;4.20;1.95;;;;;;;-145.63;36.42;38588.16;5025044;28;20040;-70
2023/08/21 08:04:51;;;;;;;2.10;1.95;;;;;;;-145.63;36.59;38613.59;5024546;28;20026;-69
2023/08/21 08:07:16;;;;;;;1.85;1.75;;;;;;;-145.63;36.78;38558.84;5024645;28;20021;-70
2023/08/21 08:09:43;;;;;;;3.05;1.90;;;;;;;-145.63;37.57;38529.50;5024867;28;20026;-68
2023/08/21 08:12:08;;;;;;;3.17;2.00;;;;;;;-145.63;36.63;38500.19;5016314;28;20057;-70
2023/08/21 08:14:35;;;;;;;4.80;3.53;;;;;;;-145.63;36.44;38472.81;5022260;28;20067;-69
2023/08/21 08:17:00;;;;;;;3.88;2.30;;;;;;;-145.63;37.27;38478.66;5029868;28;20040;-69
2023/08/21 08:19:28;;;;;;;1.90;1.70;;;;;;;-145.63;35.09;38527.56;5021727;28;20022;-69
2023/08/21 08:21:53;;;;;;;4.10;2.20;;;;;;;-145.63;36.27;38529.50;5018068;28;20141;-68
2023/08/21 08:24:19;;;;;;;1.80;1.60;;;;;;;-145.63;34.98;38594.03;5019212;28;20026;-69
2023/08/21 08:26:45;;;;;;;3.15;2.25;;;;;;;-145.63;36.20;38554.94;5019313;28;20084;-68
2023/08/21 08:29:11;;;;;;;2.10;1.90;;;;;;;-145.63;36.59;38574.47;5026677;28;20053;-70
2023/08/21 08:31:38;;;;;;;2.72;1.88;;;;;;;-145.63;36.44;38498.22;5019663;28;20036;-69
2023/08/21 08:34:04;;;;;;;2.95;2.10;;;;;;;-145.63;36.00;38519.72;5021765;28;20048;-68
2023/08/21 08:36:30;;;;;;;4.13;2.17;;;;;;;-145.63;36.86;38470.84;5023795;28;20021;-70
2023/08/21 08:38:56;;;;;;;3.17;1.83;;;;;;;-145.63;35.10;38435.66;5024314;28;20257;-70
2023/08/21 08:41:28;;;;;;;2.55;1.70;;;;;;;-145.63;34.70;38468.91;5024229;28;20037;-70
2023/08/21 08:43:57;;;;;;;2.92;2.50;;;;;;;-145.63;34.53;38455.22;5023525;28;20053;-69
2023/08/21 08:46:24;;;;;;;4.65;2.55;;;;;;;-145.63;34.91;38468.91;5024707;28;20018;-69
2023/08/21 08:48:52;;;;;;;4.60;2.00;;;;;;;-145.63;35.24;38457.16;5024089;28;20034;-69
2023/08/21 08:51:18;;;;;;;3.08;2.20;;;;;;;-145.63;35.42;38386.78;5024233;28;20053;-70
2023/08/21 08:53:44;;;;;;;4.28;1.88;;;;;;;-145.63;35.37;38447.38;5024104;28;20255;-69
2023/08/21 08:56:10;;;;;;;3.22;2.00;;;;;;;-145.63;35.00;38468.91;5024045;28;20040;-69
2023/08/21 08:58:36;;;;;;;3.05;2.20;;;;;;;-145.63;34.98;38502.13;5024144;28;20034;-70
2023/08/21 09:01:02;;;;;;;2.20;1.85;;;;;;;-145.63;34.83;38464.97;5022710;28;20089;-69
2023/08/21 09:03:29;;;;;;;4.30;2.40;;;;;;;-145.63;35.46;38414.16;5024599;28;20028;-70
2023/08/21 09:05:54;;;;;;;2.92;2.00;;;;;;;-145.63;33.34;38525.59;5024539;28;20096;-71
2023/08/21 09:08:20;;;;;;;4.75;1.85;;;;;;;-145.63;33.77;38453.25;5016828;28;20029;-70
2023/08/21 09:10:46;;;;;;;3.83;2.00;;;;;;;-145.63;34.48;38375.03;5020060;28;20033;-69
2023/08/21 09:13:18;;;;;;;3.25;1.90;;;;;;;-145.63;34.95;38449.34;5014551;28;20025;-68
2023/08/21 09:15:52;;;;;;;2.20;1.80;;;;;;;-145.63;35.08;38472.81;5014044;28;20072;-67
2023/08/21 09:18:19;;;;;;;1.98;1.70;;;;;;;-145.63;33.66;38441.53;5020546;28;20225;-68
2023/08/21 09:20:45;;;;;;;2.95;2.00;;;;;;;-145.63;33.74;38437.59;5019436;28;20033;-67
2023/08/21 09:23:17;;;;;;;2.88;1.60;;;;;;;-145.63;35.72;38406.31;5015011;28;20042;-68
2023/08/21 09:25:47;;;;;;;4.97;1.83;;;;;;;-145.63;34.77;38386.78;5016797;28;20033;-69
2023/08/21 09:28:14;;;;;;;3.28;1.60;;;;;;;-145.63;33.20;38410.22;5019829;28;20030;-68
2023/08/21 09:30:49;;;;;;;2.38;1.60;;;;;;;-145.63;33.63;38423.91;5020313;28;20022;-68
2023/08/21 09:33:18;;;;;;;3.28;1.60;;;;;;;-145.63;32.69;37675.09;5016879;28;20021;-67
2023/08/21 09:35:44;;;;;;;2.15;1.80;;;;;;;-145.63;31.87;38445.44;5016537;28;20042;-68
2023/08/21 09:38:14;;;;;;;2.03;1.80;;;;;;;-145.63;35.67;38447.38;5017614;28;20018;-68
2023/08/21 09:40:41;;;;;;;3.20;2.22;;;;;;;-145.63;33.96;38371.13;5014843;28;20109;-69
2023/08/21 09:43:10;;;;;;;4.40;2.22;;;;;;;-145.63;33.38;38402.41;5013900;28;20165;-69
2023/08/21 09:45:37;;;;;;;2.70;1.80;;;;;;;-145.63;32.06;38402.41;5025908;28;20049;-69
2023/08/21 09:48:03;;;;;;;2.00;1.80;;;;;;;-145.63;32.25;38371.13;5024848;28;20050;-68
2023/08/21 09:50:30;;;;;;;3.30;1.85;;;;;;;-145.63;31.55;38449.34;5038468;28;20032;-70
2023/08/21 09:52:57;;;;;;;3.42;2.17;;;;;;;-145.63;31.72;38480.63;5022705;28;20321;-71
2023/08/21 09:55:42;;;;;;;1.77;1.60;;;;;;;-145.63;32.59;38402.41;5023258;28;20213;-69
2023/08/21 09:58:10;;;;;;;2.42;1.90;;;;;;;-145.63;31.69;38343.75;5030676;28;20109;-69
2023/08/21 10:00:38;;;;;;;2.20;1.85;;;;;;;-145.63;30.85;38384.81;5024607;28;20090;-69
2023/08/21 10:03:07;;;;;;;5.28;2.92;;;;;;;-145.63;31.96;38333.97;5019618;28;20026;-69
2023/08/21 10:05:35;;;;;;;6.32;2.10;;;;;;;-145.63;32.55;38380.91;5020317;28;20038;-72
2023/08/21 10:08:03;;;;;;;2.95;1.90;;;;;;;-145.63;31.64;38398.50;5013112;28;20358;-71
2023/08/21 10:10:35;;;;;;;4.85;2.33;;;;;;;-145.63;30.73;38412.19;5012981;28;20025;-70
2023/08/21 10:13:02;;;;;;;2.75;1.75;;;;;;;-145.63;32.28;38382.88;5017716;28;20346;-70
2023/08/21 10:15:29;;;;;;;3.35;1.95;;;;;;;-145.63;30.89;38449.34;5016673;28;20048;-71
2023/08/21 10:17:54;;;;;;;3.75;2.22;;;;;;;-145.63;33.12;38445.44;5014355;28;20026;-70
2023/08/21 10:20:24;;;;;;;2.97;2.20;;;;;;;-145.63;30.91;38410.22;5017496;28;20029;-71
2023/08/21 10:22:54;;;;;;;3.55;1.90;;;;;;;-145.63;28.96;38427.84;5020675;28;20045;-72
2023/08/21 10:25:26;;;;;;;3.40;2.05;;;;;;;-145.63;29.24;38396.53;5020497;28;20030;-71
2023/08/21 10:27:54;;;;;;;2.95;1.90;;;;;;;-145.63;28.92;38382.88;5021023;28;20040;-71
2023/08/21 10:30:26;;;;;;;11.05;4.38;;;;;;;-145.63;31.16;38506.03;5026354;28;20071;-70
2023/08/21 10:32:54;;;;;;;3.15;2.05;;;;;;;-145.63;29.12;38388.72;5024652;28;20026;-68
2023/08/21 10:35:22;;;;;;;4.38;2.25;;;;;;;-145.63;30.32;38423.91;5021552;28;20042;-70
2023/08/21 10:38:07;;;;;;;4.47;2.13;;;;;;;-145.63;30.23;38335.94;5020654;28;20037;-71
2023/08/21 10:40:34;;;;;;;3.85;1.85;;;;;;;-145.63;30.63;38306.59;5022152;28;20025;-70
2023/08/21 10:43:00;;;;;;;1.98;1.70;;;;;;;-145.63;29.36;38404.38;5018648;28;20352;-70
2023/08/21 10:45:26;;;;;;;2.10;1.73;;;;;;;-145.63;29.46;38373.09;5020886;28;20036;-69
2023/08/21 10:47:51;;;;;;;2.30;1.88;;;;;;;-145.63;29.65;38351.56;5023041;28;20030;-68
2023/08/21 10:50:17;;;;;;;2.13;1.88;;;;;;;-145.63;29.32;38339.84;5019883;28;20029;-68
2023/08/21 10:52:46;;;;;;;3.67;2.33;;;;;;;-145.63;31.76;38345.72;5030914;28;20034;-68
2023/08/21 10:55:14;;;;;;;2.40;2.15;;;;;;;-145.63;30.99;38294.88;5028022;28;20497;-69
2023/08/21 10:57:41;;;;;;;2.50;2.20;;;;;;;-145.63;31.25;38314.44;5020285;28;20188;-71
2023/08/21 11:00:12;;;;;;;2.33;2.13;;;;;;;-145.63;32.11;37467.91;5021330;28;20044;-67
2023/08/21 11:02:44;;;;;;;2.55;1.50;;;;;;;-145.63;29.41;38341.81;5024032;28;20045;-66
2023/08/21 11:05:10;;;;;;;3.67;2.00;;;;;;;-145.63;29.65;38359.41;5026230;28;20048;-67
2023/08/21 11:07:54;;;;;;;3.28;1.80;;;;;;;-145.63;29.65;38335.94;5012556;28;20093;-67
2023/08/21 11:10:24;;;;;;;4.13;2.38;;;;;;;-145.63;30.55;38296.81;5019200;28;20022;-68
2023/08/21 11:12:59;;;;;;;3.25;1.90;;;;;;;-145.63;30.57;38015.28;5034748;28;20274;-66
2023/08/21 11:15:27;;;;;;;4.25;1.85;;;;;;;-145.63;30.79;38289.00;5026977;28;20302;-66